Darstellungsparameter: Aktuell verwendete Einstellungen:
Skalierung der Graphiken ... ?
xyx+y,   Skalierungsfaktor:      Skalierung: Modus: x, Faktor: 1
Darstellungszeitraum ... ?
Vom - - bis: - -   Zeitraum: 29.03.2010 - 29.03.2010
Min/Max/Avg-Anzeige ... ?
Zeige MMA aktuell
Zeige MMA Monat
Zeige MMA alles
Zeige --A aktuell
Zeige --A Monat
Zeige --A alles
Keine MMA-Anzeige
MMA:
Average (ber die Originaldaten)
MMA-Basis: 23.02.2003 - 30.09.2020
Quicknavigation für Darstellung... ?
Tage:      1T, 2T, 3T, 5T -1T -2T -3T -5T +1T +2T +3T +5T
Wochen: 1W, 2W, 3W -1W -2W -3W +1W +2W +3W
Monate: 1M, 3M, 6M -1M -3M -6M +1M +3M +6M
Jahre:    1J, 3J, 5J, 10J -1J -3J -5J -10J +1J +3J +5J +10J
Nutze für die Darstellung ... ?
Originaldaten oder Mittelwerte auf ...
Stundenbasis Tagesbasis Wochenbasis
Monatsbasis Jahresbasis      Datenbasis: Original-Daten
Darstellen als:
Statistik (Auto) Statistik J:M      Darstellung:
Zur Graphik,    zurück zur Übersicht aller Sensoren.
 
Tabellarische Datenbersicht: ?
 
Sensor: Nr:Datum:Temp:Abs-Feuchte:Windchill:Wind:
Aussen-T/F 1 29-03-2010 00:10:04 10 C 6.86 g/m*3 10 C 0 km/h
2 29-03-2010 00:22:04 10 C 6.77 g/m*3 10 C 0 km/h
3 29-03-2010 00:34:04 9.8 C 6.87 g/m*3 9.8 C 0 km/h
4 29-03-2010 00:46:04 9.8 C 6.87 g/m*3 9.8 C 0 km/h
5 29-03-2010 00:58:04 9.8 C 6.87 g/m*3 9.8 C 0 km/h
6 29-03-2010 01:10:04 9.8 C 7.05 g/m*3 9.8 C 0 km/h
7 29-03-2010 01:22:04 9.7 C 7.1 g/m*3 9.7 C 0 km/h
8 29-03-2010 01:34:04 9.6 C 7.15 g/m*3 9.6 C 0 km/h
9 29-03-2010 01:46:05 9.6 C 7.15 g/m*3 9.6 C 0 km/h
10 29-03-2010 01:58:05 9.6 C 7.24 g/m*3 9.6 C 0 km/h
11 29-03-2010 02:10:05 9.5 C 7.28 g/m*3 9.5 C 0 km/h
12 29-03-2010 02:22:05 9.3 C 7.28 g/m*3 9.3 C 0 km/h
13 29-03-2010 02:34:05 9.3 C 7.46 g/m*3 9.3 C 0 km/h
14 29-03-2010 02:46:05 9.3 C 7.55 g/m*3 9.3 C 0 km/h
15 29-03-2010 02:58:05 9.3 C 7.64 g/m*3 9.3 C 0 km/h
16 29-03-2010 03:10:05 9.3 C 7.73 g/m*3 9.3 C 0 km/h
17 29-03-2010 03:22:05 9.4 C 7.87 g/m*3 9.4 C 0 km/h
18 29-03-2010 03:34:05 10 C 7.99 g/m*3 10 C 0 km/h
19 29-03-2010 03:46:05 10.4 C 8.1 g/m*3 10.4 C 0 km/h
20 29-03-2010 03:58:05 10.6 C 8 g/m*3 10.6 C 0 km/h
21 29-03-2010 04:10:05 11 C 8.01 g/m*3 11 C 0 km/h
22 29-03-2010 04:22:05 11.1 C 7.96 g/m*3 11.1 C 0 km/h
23 29-03-2010 04:34:05 11.3 C 7.96 g/m*3 11.3 C 0 km/h
24 29-03-2010 04:46:05 11.5 C 7.95 g/m*3 11.5 C 0 km/h
25 29-03-2010 04:58:05 11.5 C 7.95 g/m*3 11.5 C 0 km/h
Sensor: Nr:Datum:Temp:Abs-Feuchte:Windchill:Wind:
Aussen-T/F 26 29-03-2010 05:10:05 11.5 C 7.95 g/m*3 11.5 C 0 km/h
27 29-03-2010 05:22:05 11.5 C 7.95 g/m*3 11.5 C 0 km/h
28 29-03-2010 05:34:05 11.5 C 8.06 g/m*3 11.5 C 0 km/h
29 29-03-2010 05:46:05 11.4 C 8.01 g/m*3 11.4 C 0 km/h
30 29-03-2010 05:58:05 11.5 C 8.06 g/m*3 11.5 C 0 km/h
31 29-03-2010 06:10:05 11.5 C 8.06 g/m*3 11.5 C 0 km/h
32 29-03-2010 06:22:06 11.5 C 8.06 g/m*3 11.5 C 0 km/h
33 29-03-2010 06:34:06 11.5 C 7.95 g/m*3 11.5 C 0 km/h
34 29-03-2010 06:46:01 11.4 C 7.9 g/m*3 11.4 C 0 km/h
35 29-03-2010 06:58:01 11.4 C 8.11 g/m*3 11.4 C 0 km/h
36 29-03-2010 07:10:02 11.2 C 8.11 g/m*3 11.2 C 0 km/h
37 29-03-2010 07:22:02 10.9 C 8.26 g/m*3 10.9 C 0 km/h
38 29-03-2010 07:34:02 10.7 C 8.35 g/m*3 10.7 C 0 km/h
39 29-03-2010 07:46:02 10.6 C 8.49 g/m*3 10.6 C 0 km/h
40 29-03-2010 07:58:02 10.6 C 8.59 g/m*3 10.6 C 0 km/h
41 29-03-2010 08:10:02 10.7 C 8.55 g/m*3 10.7 C 0 km/h
42 29-03-2010 08:22:01 10.8 C 8.5 g/m*3 10.8 C 0 km/h
43 29-03-2010 08:34:02 11.2 C 8.41 g/m*3 11.2 C 0 km/h
44 29-03-2010 08:46:02 11.4 C 8.11 g/m*3 11.4 C 0 km/h
45 29-03-2010 08:58:02 11.6 C 8 g/m*3 11.6 C 0 km/h
46 29-03-2010 09:10:02 11.8 C 7.89 g/m*3 11.8 C 0 km/h
47 29-03-2010 09:22:01 11.9 C 7.84 g/m*3 11.9 C 0 km/h
48 29-03-2010 09:34:02 12 C 7.78 g/m*3 12 C 0 km/h
49 29-03-2010 09:46:01 12.1 C 7.72 g/m*3 12.1 C 0 km/h
50 29-03-2010 09:58:01 12.2 C 7.77 g/m*3 12.2 C 0 km/h
Sensor: Nr:Datum:Temp:Abs-Feuchte:Windchill:Wind:
Aussen-T/F 51 29-03-2010 10:10:02 12.4 C 7.87 g/m*3 12.4 C 0 km/h
52 29-03-2010 10:22:02 12.6 C 7.85 g/m*3 12.6 C 0 km/h
53 29-03-2010 10:34:02 12.7 C 7.9 g/m*3 12.7 C 0 km/h
54 29-03-2010 10:46:02 12.5 C 7.7 g/m*3 12.5 C 0 km/h
55 29-03-2010 10:58:02 13 C 7.83 g/m*3 13 C 0 km/h
56 29-03-2010 11:10:02 13.1 C 7.87 g/m*3 13.1 C 0 km/h
57 29-03-2010 11:22:02 13.3 C 7.86 g/m*3 13.3 C 0 km/h
58 29-03-2010 11:34:01 13.5 C 7.84 g/m*3 13.5 C 0 km/h
59 29-03-2010 11:46:02 13.9 C 7.91 g/m*3 13.9 C 0 km/h
60 29-03-2010 11:58:02 14 C 7.72 g/m*3 14 C 0 km/h
61 29-03-2010 12:10:01 14.4 C 7.66 g/m*3 14.4 C 0 km/h
62 29-03-2010 12:22:02 15 C 7.57 g/m*3 15 C 0 km/h
63 29-03-2010 12:34:01 15.3 C 7.44 g/m*3 15.3 C 0 km/h
64 29-03-2010 12:46:02 14.9 C 7.52 g/m*3 14.9 C 0 km/h
65 29-03-2010 12:58:02 14.9 C 7.39 g/m*3 14.9 C 0 km/h
66 29-03-2010 13:10:02 15.3 C 7.18 g/m*3 15.3 C 0 km/h
67 29-03-2010 13:22:02 14.8 C 7.09 g/m*3 14.8 C 0 km/h
68 29-03-2010 13:34:03 14.6 C 7.38 g/m*3 14.6 C 0 km/h
69 29-03-2010 13:46:02 14.4 C 7.54 g/m*3 14.4 C 0 km/h
70 29-03-2010 13:58:02 13.8 C 8.1 g/m*3 13.8 C 0 km/h
71 29-03-2010 14:10:01 14.2 C 8.91 g/m*3 14.2 C 0 km/h
72 29-03-2010 14:22:02 14.7 C 8.69 g/m*3 14.7 C 0 km/h
73 29-03-2010 14:34:02 14.2 C 7.82 g/m*3 14.2 C 0 km/h
74 29-03-2010 14:46:02 13.1 C 8.33 g/m*3 13.1 C 0 km/h
75 29-03-2010 14:58:02 12.7 C 8.13 g/m*3 12.7 C 0 km/h
Sensor: Nr:Datum:Temp:Abs-Feuchte:Windchill:Wind:
Aussen-T/F 76 29-03-2010 15:10:02 13.2 C 8.38 g/m*3 13.2 C 0 km/h
77 29-03-2010 15:22:02 12.8 C 8.4 g/m*3 12.8 C 0 km/h
78 29-03-2010 15:34:02 12.8 C 8.62 g/m*3 12.8 C 0 km/h
79 29-03-2010 15:46:02 12.7 C 8.68 g/m*3 12.7 C 0 km/h
80 29-03-2010 15:58:02 13.4 C 8.6 g/m*3 13.4 C 0 km/h
81 29-03-2010 16:10:02 14 C 8.2 g/m*3 14 C 0 km/h
82 29-03-2010 16:22:02 14.2 C 7.69 g/m*3 14.2 C 0 km/h
83 29-03-2010 16:34:02 14.3 C 7.62 g/m*3 14.3 C 0 km/h
84 29-03-2010 16:46:02 14 C 7.96 g/m*3 14 C 0 km/h
85 29-03-2010 16:58:02 13.8 C 8.22 g/m*3 13.8 C 0 km/h
86 29-03-2010 17:10:02 12.2 C 8.31 g/m*3 12.2 C 0 km/h
87 29-03-2010 17:22:03 12.2 C 8.96 g/m*3 12.2 C 0 km/h
88 29-03-2010 17:34:02 12.6 C 9.4 g/m*3 12.6 C 0 km/h
89 29-03-2010 17:46:02 14.2 C 10.14 g/m*3 14.2 C 0 km/h
90 29-03-2010 17:58:02 14.5 C 9.45 g/m*3 14.5 C 0 km/h
91 29-03-2010 18:10:02 14.7 C 9.44 g/m*3 14.7 C 0 km/h
92 29-03-2010 18:22:02 14.9 C 8.92 g/m*3 14.9 C 0 km/h
93 29-03-2010 18:34:02 14.8 C 8.87 g/m*3 14.8 C 0 km/h
94 29-03-2010 18:46:02 14.5 C 8.83 g/m*3 14.5 C 0 km/h
95 29-03-2010 18:58:02 14.4 C 9.02 g/m*3 14.4 C 0 km/h
96 29-03-2010 19:10:01 14.2 C 8.91 g/m*3 14.2 C 0 km/h
97 29-03-2010 19:22:02 13.7 C 8.76 g/m*3 13.7 C 0 km/h
98 29-03-2010 19:34:01 13 C 8.73 g/m*3 13 C 0 km/h
99 29-03-2010 19:46:02 12.2 C 8.52 g/m*3 12.2 C 0 km/h
100 29-03-2010 19:58:02 11.7 C 8.37 g/m*3 11.7 C 0 km/h
Sensor: Nr:Datum:Temp:Abs-Feuchte:Windchill:Wind:
Aussen-T/F 101 29-03-2010 20:10:01 11.2 C 8.21 g/m*3 11.2 C 0 km/h
102 29-03-2010 20:22:01 10.8 C 8.2 g/m*3 10.8 C 0 km/h
103 29-03-2010 20:34:02 10.6 C 8.2 g/m*3 10.6 C 0 km/h
104 29-03-2010 20:46:02 10.5 C 8.15 g/m*3 10.5 C 0 km/h
105 29-03-2010 20:58:02 10.4 C 8.1 g/m*3 10.4 C 0 km/h
106 29-03-2010 21:10:01 10.3 C 8.04 g/m*3 10.3 C 0 km/h
107 29-03-2010 21:22:02 10.2 C 7.99 g/m*3 10.2 C 0 km/h
108 29-03-2010 21:34:02 10.3 C 8.04 g/m*3 10.3 C 0 km/h
109 29-03-2010 21:47:02 10.3 C 8.04 g/m*3 10.3 C 0 km/h
110 29-03-2010 21:59:02 10.2 C 7.99 g/m*3 10.2 C 0 km/h
111 29-03-2010 22:11:02 10 C 7.89 g/m*3 10 C 0 km/h
112 29-03-2010 22:23:03 10 C 7.89 g/m*3 10 C 0 km/h
113 29-03-2010 22:35:03 9.9 C 7.94 g/m*3 9.9 C 0 km/h
114 29-03-2010 22:47:03 9.8 C 7.89 g/m*3 9.8 C 0 km/h
115 29-03-2010 22:59:03 9.9 C 8.03 g/m*3 9.9 C 0 km/h
116 29-03-2010 23:11:03 9.9 C 7.94 g/m*3 9.9 C 0 km/h
117 29-03-2010 23:23:03 9.9 C 7.94 g/m*3 9.9 C 0 km/h
118 29-03-2010 23:35:03 10.1 C 7.85 g/m*3 10.1 C 0 km/h
119 29-03-2010 23:47:03 10.1 C 7.66 g/m*3 10.1 C 0 km/h
120 29-03-2010 23:59:03 10.2 C 7.71 g/m*3 10.2 C 0 km/h

Legende:
   Min
   Max


Maximal/Minimal-Werte vom 23.02.2003 - 30.09.2020

Sensor Min Max Avg
Temp
(Aussen-T/F)
-16.4 °C
20-12-2009  01:30:01
40.4 °C
25-07-2019  16:20:00
11.32 °C

Die Daten stammen von einer Davis Vantage Pro 2 Wetter-Station und werden unter Linux mit der Software wview2wettercgi und aufbereitet. Alle Angaben erfolgen ohne Gewähr für ihre Vollständigkeit oder Richtigkeit.
Kontakt: Rainer Krienke krienke@uni-koblenz.de . Meine Webseiten an der Uni Koblenz oder privat.
Version: $Revision: 0.78 $